sensor_id;sensor_type;location;lat;lon;timestamp;temperature;humidity
48551;DHT22;34397;51.176;6.738;2024-03-07T00:01:54;8.70;73.00
48551;DHT22;34397;51.176;6.738;2024-03-07T00:04:27;8.70;73.20
48551;DHT22;34397;51.176;6.738;2024-03-07T00:06:59;8.70;73.20
48551;DHT22;34397;51.176;6.738;2024-03-07T00:09:32;8.60;73.10
48551;DHT22;34397;51.176;6.738;2024-03-07T00:12:05;8.60;73.40
48551;DHT22;34397;51.176;6.738;2024-03-07T00:14:38;8.60;73.50
48551;DHT22;34397;51.176;6.738;2024-03-07T00:17:10;8.60;74.30
48551;DHT22;34397;51.176;6.738;2024-03-07T00:19:45;8.60;73.70
48551;DHT22;34397;51.176;6.738;2024-03-07T00:22:18;8.60;73.60
48551;DHT22;34397;51.176;6.738;2024-03-07T00:24:50;8.60;73.50
48551;DHT22;34397;51.176;6.738;2024-03-07T00:27:21;8.60;73.80
48551;DHT22;34397;51.176;6.738;2024-03-07T00:29:53;8.50;73.60
48551;DHT22;34397;51.176;6.738;2024-03-07T00:32:25;8.50;73.40
48551;DHT22;34397;51.176;6.738;2024-03-07T00:35:01;8.40;73.50
48551;DHT22;34397;51.176;6.738;2024-03-07T00:37:34;8.40;73.20
48551;DHT22;34397;51.176;6.738;2024-03-07T00:40:08;8.40;73.20
48551;DHT22;34397;51.176;6.738;2024-03-07T00:42:41;8.40;73.10
48551;DHT22;34397;51.176;6.738;2024-03-07T00:45:13;8.30;72.90
48551;DHT22;34397;51.176;6.738;2024-03-07T00:47:45;8.30;72.50
48551;DHT22;34397;51.176;6.738;2024-03-07T00:50:20;8.30;72.90
48551;DHT22;34397;51.176;6.738;2024-03-07T00:52:51;8.20;72.70
48551;DHT22;34397;51.176;6.738;2024-03-07T00:55:23;8.20;73.30
48551;DHT22;34397;51.176;6.738;2024-03-07T00:57:55;8.10;73.60
48551;DHT22;34397;51.176;6.738;2024-03-07T01:00:27;8.10;73.80
48551;DHT22;34397;51.176;6.738;2024-03-07T01:02:59;8.10;74.00
48551;DHT22;34397;51.176;6.738;2024-03-07T01:05:33;8.00;74.10
48551;DHT22;34397;51.176;6.738;2024-03-07T01:08:05;8.00;74.00
48551;DHT22;34397;51.176;6.738;2024-03-07T01:10:37;8.00;74.30
48551;DHT22;34397;51.176;6.738;2024-03-07T01:13:09;8.00;74.30
48551;DHT22;34397;51.176;6.738;2024-03-07T01:15:50;7.90;74.40
48551;DHT22;34397;51.176;6.738;2024-03-07T01:18:22;7.90;74.50
48551;DHT22;34397;51.176;6.738;2024-03-07T01:20:55;7.90;74.30
48551;DHT22;34397;51.176;6.738;2024-03-07T01:23:27;7.90;73.80
48551;DHT22;34397;51.176;6.738;2024-03-07T01:26:00;7.90;73.80
48551;DHT22;34397;51.176;6.738;2024-03-07T01:28:32;7.90;73.30
48551;DHT22;34397;51.176;6.738;2024-03-07T01:31:04;7.90;73.50
48551;DHT22;34397;51.176;6.738;2024-03-07T01:33:36;7.80;73.50
48551;DHT22;34397;51.176;6.738;2024-03-07T01:36:09;7.80;73.70
48551;DHT22;34397;51.176;6.738;2024-03-07T01:38:41;7.70;73.70
48551;DHT22;34397;51.176;6.738;2024-03-07T01:41:13;7.70;73.90
48551;DHT22;34397;51.176;6.738;2024-03-07T01:43:45;7.60;73.90
48551;DHT22;34397;51.176;6.738;2024-03-07T01:46:17;7.60;74.20
48551;DHT22;34397;51.176;6.738;2024-03-07T01:48:50;7.60;74.10
48551;DHT22;34397;51.176;6.738;2024-03-07T01:51:23;7.50;74.20
48551;DHT22;34397;51.176;6.738;2024-03-07T01:53:55;7.50;74.20
48551;DHT22;34397;51.176;6.738;2024-03-07T01:56:27;7.50;74.50
48551;DHT22;34397;51.176;6.738;2024-03-07T01:59:01;7.50;74.90
48551;DHT22;34397;51.176;6.738;2024-03-07T02:01:33;7.50;74.80
48551;DHT22;34397;51.176;6.738;2024-03-07T02:04:07;7.50;75.10
48551;DHT22;34397;51.176;6.738;2024-03-07T02:06:41;7.50;75.70
48551;DHT22;34397;51.176;6.738;2024-03-07T02:09:13;7.50;75.50
48551;DHT22;34397;51.176;6.738;2024-03-07T02:11:47;7.40;75.70
48551;DHT22;34397;51.176;6.738;2024-03-07T02:14:19;7.50;75.30
48551;DHT22;34397;51.176;6.738;2024-03-07T02:16:50;7.50;75.90
48551;DHT22;34397;51.176;6.738;2024-03-07T02:19:23;7.50;75.80
48551;DHT22;34397;51.176;6.738;2024-03-07T02:21:56;7.50;75.80
48551;DHT22;34397;51.176;6.738;2024-03-07T02:24:30;7.50;75.30
48551;DHT22;34397;51.176;6.738;2024-03-07T02:27:02;7.40;75.60
48551;DHT22;34397;51.176;6.738;2024-03-07T02:29:38;7.40;75.70
48551;DHT22;34397;51.176;6.738;2024-03-07T02:32:10;7.40;75.90
48551;DHT22;34397;51.176;6.738;2024-03-07T02:34:42;7.40;75.80
48551;DHT22;34397;51.176;6.738;2024-03-07T02:37:18;7.50;76.00
48551;DHT22;34397;51.176;6.738;2024-03-07T02:39:50;7.40;75.50
48551;DHT22;34397;51.176;6.738;2024-03-07T02:42:22;7.40;75.70
48551;DHT22;34397;51.176;6.738;2024-03-07T02:44:54;7.40;75.50
48551;DHT22;34397;51.176;6.738;2024-03-07T02:47:26;7.40;75.40
48551;DHT22;34397;51.176;6.738;2024-03-07T02:49:59;7.40;75.10
48551;DHT22;34397;51.176;6.738;2024-03-07T02:52:33;7.30;74.70
48551;DHT22;34397;51.176;6.738;2024-03-07T02:55:05;7.30;74.30
48551;DHT22;34397;51.176;6.738;2024-03-07T02:57:40;7.30;74.30
48551;DHT22;34397;51.176;6.738;2024-03-07T03:00:13;7.20;74.10
48551;DHT22;34397;51.176;6.738;2024-03-07T03:02:50;7.10;73.60
48551;DHT22;34397;51.176;6.738;2024-03-07T03:05:22;7.10;73.80
48551;DHT22;34397;51.176;6.738;2024-03-07T03:07:56;7.10;73.80
48551;DHT22;34397;51.176;6.738;2024-03-07T03:10:28;7.00;73.80
48551;DHT22;34397;51.176;6.738;2024-03-07T03:13:01;7.00;74.30
48551;DHT22;34397;51.176;6.738;2024-03-07T03:15:33;7.00;74.40
48551;DHT22;34397;51.176;6.738;2024-03-07T03:18:05;6.90;74.50
48551;DHT22;34397;51.176;6.738;2024-03-07T03:20:37;6.90;75.40
48551;DHT22;34397;51.176;6.738;2024-03-07T03:23:11;6.90;74.80
48551;DHT22;34397;51.176;6.738;2024-03-07T03:25:43;6.90;74.10
48551;DHT22;34397;51.176;6.738;2024-03-07T03:28:15;6.90;75.10
48551;DHT22;34397;51.176;6.738;2024-03-07T03:30:49;6.90;75.40
48551;DHT22;34397;51.176;6.738;2024-03-07T03:33:22;6.90;75.60
48551;DHT22;34397;51.176;6.738;2024-03-07T03:35:54;6.90;75.40
48551;DHT22;34397;51.176;6.738;2024-03-07T03:38:27;6.80;75.80
48551;DHT22;34397;51.176;6.738;2024-03-07T03:40:59;6.80;75.80
48551;DHT22;34397;51.176;6.738;2024-03-07T03:43:31;6.90;76.50
48551;DHT22;34397;51.176;6.738;2024-03-07T03:46:03;6.90;76.30
48551;DHT22;34397;51.176;6.738;2024-03-07T03:48:35;6.80;75.90
48551;DHT22;34397;51.176;6.738;2024-03-07T03:51:08;6.80;75.50
48551;DHT22;34397;51.176;6.738;2024-03-07T03:53:41;6.80;75.00
48551;DHT22;34397;51.176;6.738;2024-03-07T03:56:13;6.80;74.90
48551;DHT22;34397;51.176;6.738;2024-03-07T03:58:46;6.80;75.10
48551;DHT22;34397;51.176;6.738;2024-03-07T04:01:18;6.80;74.70
48551;DHT22;34397;51.176;6.738;2024-03-07T04:03:49;6.80;75.30
48551;DHT22;34397;51.176;6.738;2024-03-07T04:06:21;6.70;75.20
48551;DHT22;34397;51.176;6.738;2024-03-07T04:08:55;6.70;75.30
48551;DHT22;34397;51.176;6.738;2024-03-07T04:11:27;6.70;75.30
48551;DHT22;34397;51.176;6.738;2024-03-07T04:13:59;6.70;75.40
48551;DHT22;34397;51.176;6.738;2024-03-07T04:16:31;6.70;75.10
48551;DHT22;34397;51.176;6.738;2024-03-07T04:19:03;6.60;75.10
48551;DHT22;34397;51.176;6.738;2024-03-07T04:21:35;6.60;75.30
48551;DHT22;34397;51.176;6.738;2024-03-07T04:24:09;6.60;75.30
48551;DHT22;34397;51.176;6.738;2024-03-07T04:26:41;6.60;75.10
48551;DHT22;34397;51.176;6.738;2024-03-07T04:29:13;6.60;75.40
48551;DHT22;34397;51.176;6.738;2024-03-07T04:31:45;6.60;75.20
48551;DHT22;34397;51.176;6.738;2024-03-07T04:34:17;6.50;75.40
48551;DHT22;34397;51.176;6.738;2024-03-07T04:36:49;6.50;75.50
48551;DHT22;34397;51.176;6.738;2024-03-07T04:39:22;6.50;75.70
48551;DHT22;34397;51.176;6.738;2024-03-07T04:42:03;6.50;75.80
48551;DHT22;34397;51.176;6.738;2024-03-07T04:44:37;6.50;76.30
48551;DHT22;34397;51.176;6.738;2024-03-07T04:47:09;6.60;76.60
48551;DHT22;34397;51.176;6.738;2024-03-07T04:49:42;6.50;76.60
48551;DHT22;34397;51.176;6.738;2024-03-07T04:52:14;6.50;76.80
48551;DHT22;34397;51.176;6.738;2024-03-07T04:54:47;6.50;77.00
48551;DHT22;34397;51.176;6.738;2024-03-07T04:57:19;6.60;77.10
48551;DHT22;34397;51.176;6.738;2024-03-07T04:59:51;6.60;77.30
48551;DHT22;34397;51.176;6.738;2024-03-07T05:02:23;6.60;77.40
48551;DHT22;34397;51.176;6.738;2024-03-07T05:04:56;6.60;77.20
48551;DHT22;34397;51.176;6.738;2024-03-07T05:07:27;6.60;77.10
48551;DHT22;34397;51.176;6.738;2024-03-07T05:10:01;6.60;77.20
48551;DHT22;34397;51.176;6.738;2024-03-07T05:12:33;6.70;77.10
48551;DHT22;34397;51.176;6.738;2024-03-07T05:15:06;6.70;77.10
48551;DHT22;34397;51.176;6.738;2024-03-07T05:17:40;6.70;77.00
48551;DHT22;34397;51.176;6.738;2024-03-07T05:20:13;6.70;77.00
48551;DHT22;34397;51.176;6.738;2024-03-07T05:22:45;6.70;77.00
48551;DHT22;34397;51.176;6.738;2024-03-07T05:25:22;6.70;76.70
48551;DHT22;34397;51.176;6.738;2024-03-07T05:27:53;6.80;76.20
48551;DHT22;34397;51.176;6.738;2024-03-07T05:30:25;6.70;76.30
48551;DHT22;34397;51.176;6.738;2024-03-07T05:32:58;6.70;76.10
48551;DHT22;34397;51.176;6.738;2024-03-07T05:35:32;6.70;76.00
48551;DHT22;34397;51.176;6.738;2024-03-07T05:38:04;6.60;75.80
48551;DHT22;34397;51.176;6.738;2024-03-07T05:40:37;6.60;75.90
48551;DHT22;34397;51.176;6.738;2024-03-07T05:43:09;6.60;75.60
48551;DHT22;34397;51.176;6.738;2024-03-07T05:45:44;6.60;75.60
48551;DHT22;34397;51.176;6.738;2024-03-07T05:48:16;6.50;75.70
48551;DHT22;34397;51.176;6.738;2024-03-07T05:50:48;6.50;75.60
48551;DHT22;34397;51.176;6.738;2024-03-07T05:53:20;6.50;75.70
48551;DHT22;34397;51.176;6.738;2024-03-07T05:55:53;6.40;75.80
48551;DHT22;34397;51.176;6.738;2024-03-07T05:58:25;6.40;75.70
48551;DHT22;34397;51.176;6.738;2024-03-07T06:00:57;6.40;76.00
48551;DHT22;34397;51.176;6.738;2024-03-07T06:03:29;6.30;76.10
48551;DHT22;34397;51.176;6.738;2024-03-07T06:06:01;6.30;76.20
48551;DHT22;34397;51.176;6.738;2024-03-07T06:12:26;6.30;74.90
48551;DHT22;34397;51.176;6.738;2024-03-07T06:14:58;6.30;76.00
48551;DHT22;34397;51.176;6.738;2024-03-07T06:17:30;6.20;76.10
48551;DHT22;34397;51.176;6.738;2024-03-07T06:20:03;6.20;76.10
48551;DHT22;34397;51.176;6.738;2024-03-07T06:22:47;6.20;76.20
48551;DHT22;34397;51.176;6.738;2024-03-07T06:25:20;6.10;76.10
48551;DHT22;34397;51.176;6.738;2024-03-07T06:28:06;6.10;75.60
48551;DHT22;34397;51.176;6.738;2024-03-07T06:30:43;6.10;75.60
48551;DHT22;34397;51.176;6.738;2024-03-07T06:33:17;6.00;75.30
48551;DHT22;34397;51.176;6.738;2024-03-07T06:35:49;6.00;75.70
48551;DHT22;34397;51.176;6.738;2024-03-07T06:38:22;6.00;75.70
48551;DHT22;34397;51.176;6.738;2024-03-07T06:40:53;6.00;76.20
48551;DHT22;34397;51.176;6.738;2024-03-07T06:43:30;6.00;76.10
48551;DHT22;34397;51.176;6.738;2024-03-07T06:46:02;6.00;76.00
48551;DHT22;34397;51.176;6.738;2024-03-07T06:48:35;6.00;76.60
48551;DHT22;34397;51.176;6.738;2024-03-07T06:51:09;6.00;76.90
48551;DHT22;34397;51.176;6.738;2024-03-07T06:53:44;6.00;77.20
48551;DHT22;34397;51.176;6.738;2024-03-07T06:56:17;6.00;77.20
48551;DHT22;34397;51.176;6.738;2024-03-07T06:58:50;6.00;77.30
48551;DHT22;34397;51.176;6.738;2024-03-07T07:01:22;6.10;77.30
48551;DHT22;34397;51.176;6.738;2024-03-07T07:03:54;6.10;77.30
48551;DHT22;34397;51.176;6.738;2024-03-07T07:06:27;6.10;77.30
48551;DHT22;34397;51.176;6.738;2024-03-07T07:08:59;6.10;77.10
48551;DHT22;34397;51.176;6.738;2024-03-07T07:11:33;6.10;77.30
48551;DHT22;34397;51.176;6.738;2024-03-07T07:14:07;6.10;77.00
48551;DHT22;34397;51.176;6.738;2024-03-07T07:16:39;6.20;77.00
48551;DHT22;34397;51.176;6.738;2024-03-07T07:19:15;6.20;77.00
48551;DHT22;34397;51.176;6.738;2024-03-07T07:21:47;6.20;77.00
48551;DHT22;34397;51.176;6.738;2024-03-07T07:24:23;6.20;77.00
48551;DHT22;34397;51.176;6.738;2024-03-07T07:26:56;6.30;77.10
48551;DHT22;34397;51.176;6.738;2024-03-07T07:29:29;6.30;77.10
48551;DHT22;34397;51.176;6.738;2024-03-07T07:32:01;6.30;76.90
48551;DHT22;34397;51.176;6.738;2024-03-07T07:34:33;6.40;76.70
48551;DHT22;34397;51.176;6.738;2024-03-07T07:37:05;6.40;76.60
48551;DHT22;34397;51.176;6.738;2024-03-07T07:39:37;6.40;76.50
48551;DHT22;34397;51.176;6.738;2024-03-07T07:42:08;6.50;76.40
48551;DHT22;34397;51.176;6.738;2024-03-07T07:44:43;6.50;76.30
48551;DHT22;34397;51.176;6.738;2024-03-07T07:47:15;6.60;76.00
48551;DHT22;34397;51.176;6.738;2024-03-07T07:49:47;6.60;75.90
48551;DHT22;34397;51.176;6.738;2024-03-07T07:52:18;6.60;75.80
48551;DHT22;34397;51.176;6.738;2024-03-07T07:54:50;6.70;75.80
48551;DHT22;34397;51.176;6.738;2024-03-07T07:57:22;6.70;75.60
48551;DHT22;34397;51.176;6.738;2024-03-07T07:59:55;6.70;75.20
48551;DHT22;34397;51.176;6.738;2024-03-07T08:02:27;6.80;74.70
48551;DHT22;34397;51.176;6.738;2024-03-07T08:04:59;6.80;74.60
48551;DHT22;34397;51.176;6.738;2024-03-07T08:07:31;6.80;74.80
48551;DHT22;34397;51.176;6.738;2024-03-07T08:10:04;6.90;74.30
48551;DHT22;34397;51.176;6.738;2024-03-07T08:12:36;6.90;74.20
48551;DHT22;34397;51.176;6.738;2024-03-07T08:15:10;6.90;73.90
48551;DHT22;34397;51.176;6.738;2024-03-07T08:17:44;7.00;73.70
48551;DHT22;34397;51.176;6.738;2024-03-07T08:20:19;7.10;73.10
48551;DHT22;34397;51.176;6.738;2024-03-07T08:22:53;7.10;72.90
48551;DHT22;34397;51.176;6.738;2024-03-07T08:25:27;7.10;73.20
48551;DHT22;34397;51.176;6.738;2024-03-07T08:28:00;7.10;72.60
48551;DHT22;34397;51.176;6.738;2024-03-07T08:30:34;7.20;72.70
48551;DHT22;34397;51.176;6.738;2024-03-07T08:33:06;7.20;72.10
48551;DHT22;34397;51.176;6.738;2024-03-07T08:35:38;7.30;72.00
48551;DHT22;34397;51.176;6.738;2024-03-07T08:38:10;7.40;71.50
48551;DHT22;34397;51.176;6.738;2024-03-07T08:40:42;7.40;70.50
48551;DHT22;34397;51.176;6.738;2024-03-07T08:43:14;7.40;70.50
48551;DHT22;34397;51.176;6.738;2024-03-07T08:45:47;7.50;69.80
48551;DHT22;34397;51.176;6.738;2024-03-07T08:48:19;7.50;69.40
48551;DHT22;34397;51.176;6.738;2024-03-07T08:50:52;7.60;69.60
48551;DHT22;34397;51.176;6.738;2024-03-07T08:53:24;7.60;69.00
48551;DHT22;34397;51.176;6.738;2024-03-07T08:55:56;7.70;68.70
48551;DHT22;34397;51.176;6.738;2024-03-07T08:58:29;7.60;68.20
48551;DHT22;34397;51.176;6.738;2024-03-07T09:01:05;7.70;67.70
48551;DHT22;34397;51.176;6.738;2024-03-07T09:03:41;7.70;66.80
48551;DHT22;34397;51.176;6.738;2024-03-07T09:06:13;7.80;67.40
48551;DHT22;34397;51.176;6.738;2024-03-07T09:08:46;7.90;66.50
48551;DHT22;34397;51.176;6.738;2024-03-07T09:11:18;7.80;66.10
48551;DHT22;34397;51.176;6.738;2024-03-07T09:13:50;7.80;65.60
48551;DHT22;34397;51.176;6.738;2024-03-07T09:16:24;7.80;65.30
48551;DHT22;34397;51.176;6.738;2024-03-07T09:18:56;7.90;65.00
48551;DHT22;34397;51.176;6.738;2024-03-07T09:21:28;7.80;64.60
48551;DHT22;34397;51.176;6.738;2024-03-07T09:24:00;7.90;64.60
48551;DHT22;34397;51.176;6.738;2024-03-07T09:26:34;7.90;64.30
48551;DHT22;34397;51.176;6.738;2024-03-07T09:29:08;7.90;64.10
48551;DHT22;34397;51.176;6.738;2024-03-07T09:31:47;7.90;64.10
48551;DHT22;34397;51.176;6.738;2024-03-07T09:34:24;7.90;65.20
48551;DHT22;34397;51.176;6.738;2024-03-07T09:37:01;8.00;63.90
48551;DHT22;34397;51.176;6.738;2024-03-07T09:39:37;8.00;63.80
48551;DHT22;34397;51.176;6.738;2024-03-07T09:42:09;8.10;63.20
48551;DHT22;34397;51.176;6.738;2024-03-07T09:44:45;8.10;63.10
48551;DHT22;34397;51.176;6.738;2024-03-07T09:47:22;8.10;62.70
48551;DHT22;34397;51.176;6.738;2024-03-07T09:50:00;8.20;62.40
48551;DHT22;34397;51.176;6.738;2024-03-07T09:52:33;8.30;62.00
48551;DHT22;34397;51.176;6.738;2024-03-07T09:55:07;8.30;62.20
48551;DHT22;34397;51.176;6.738;2024-03-07T09:57:40;8.40;62.10
48551;DHT22;34397;51.176;6.738;2024-03-07T10:00:17;8.50;61.70
48551;DHT22;34397;51.176;6.738;2024-03-07T10:02:57;8.60;61.00
48551;DHT22;34397;51.176;6.738;2024-03-07T10:05:30;8.70;60.20
48551;DHT22;34397;51.176;6.738;2024-03-07T10:08:03;8.80;60.20
48551;DHT22;34397;51.176;6.738;2024-03-07T10:10:37;8.80;60.60
48551;DHT22;34397;51.176;6.738;2024-03-07T10:13:09;8.90;61.30
48551;DHT22;34397;51.176;6.738;2024-03-07T10:15:42;9.00;59.40
48551;DHT22;34397;51.176;6.738;2024-03-07T10:18:25;9.00;60.60
48551;DHT22;34397;51.176;6.738;2024-03-07T10:20:58;9.00;59.60
48551;DHT22;34397;51.176;6.738;2024-03-07T10:23:31;9.10;59.70
48551;DHT22;34397;51.176;6.738;2024-03-07T10:26:04;9.20;59.40
48551;DHT22;34397;51.176;6.738;2024-03-07T10:28:38;9.30;59.00
48551;DHT22;34397;51.176;6.738;2024-03-07T10:31:10;9.30;59.00
48551;DHT22;34397;51.176;6.738;2024-03-07T10:33:47;9.30;58.80
48551;DHT22;34397;51.176;6.738;2024-03-07T10:36:19;9.40;58.70
48551;DHT22;34397;51.176;6.738;2024-03-07T10:38:51;9.40;59.10
48551;DHT22;34397;51.176;6.738;2024-03-07T10:41:28;9.40;59.00
48551;DHT22;34397;51.176;6.738;2024-03-07T10:44:01;9.40;58.70
48551;DHT22;34397;51.176;6.738;2024-03-07T10:46:34;9.40;58.80
48551;DHT22;34397;51.176;6.738;2024-03-07T10:49:10;9.50;59.00
48551;DHT22;34397;51.176;6.738;2024-03-07T10:51:46;9.60;58.40
48551;DHT22;34397;51.176;6.738;2024-03-07T10:54:36;9.80;58.60
48551;DHT22;34397;51.176;6.738;2024-03-07T10:57:20;10.10;58.60
48551;DHT22;34397;51.176;6.738;2024-03-07T10:59:57;10.40;58.50
48551;DHT22;34397;51.176;6.738;2024-03-07T11:02:46;10.80;57.50
48551;DHT22;34397;51.176;6.738;2024-03-07T11:05:21;11.30;57.30
48551;DHT22;34397;51.176;6.738;2024-03-07T11:07:55;11.70;57.00
48551;DHT22;34397;51.176;6.738;2024-03-07T11:10:29;12.10;55.50
48551;DHT22;34397;51.176;6.738;2024-03-07T11:13:03;12.40;54.30
48551;DHT22;34397;51.176;6.738;2024-03-07T11:15:36;12.60;53.70
48551;DHT22;34397;51.176;6.738;2024-03-07T11:18:09;12.70;53.00
48551;DHT22;34397;51.176;6.738;2024-03-07T11:20:44;12.80;52.60
48551;DHT22;34397;51.176;6.738;2024-03-07T11:23:27;12.80;51.90
48551;DHT22;34397;51.176;6.738;2024-03-07T11:26:04;12.80;51.00
48551;DHT22;34397;51.176;6.738;2024-03-07T11:28:39;12.80;51.50
48551;DHT22;34397;51.176;6.738;2024-03-07T11:31:15;12.80;51.30
48551;DHT22;34397;51.176;6.738;2024-03-07T11:34:13;12.90;51.20
48551;DHT22;34397;51.176;6.738;2024-03-07T11:36:47;13.00;50.60
48551;DHT22;34397;51.176;6.738;2024-03-07T11:39:40;13.10;51.60
48551;DHT22;34397;51.176;6.738;2024-03-07T11:42:22;13.20;51.00
48551;DHT22;34397;51.176;6.738;2024-03-07T11:44:57;13.30;51.60
48551;DHT22;34397;51.176;6.738;2024-03-07T11:47:35;13.30;50.50
48551;DHT22;34397;51.176;6.738;2024-03-07T11:50:08;13.30;51.60
48551;DHT22;34397;51.176;6.738;2024-03-07T11:52:43;13.50;51.30
48551;DHT22;34397;51.176;6.738;2024-03-07T11:55:16;14.00;51.10
48551;DHT22;34397;51.176;6.738;2024-03-07T11:57:50;14.40;50.50
48551;DHT22;34397;51.176;6.738;2024-03-07T12:00:22;14.90;49.40
48551;DHT22;34397;51.176;6.738;2024-03-07T12:03:02;15.40;48.50
48551;DHT22;34397;51.176;6.738;2024-03-07T12:05:36;15.80;47.20
48551;DHT22;34397;51.176;6.738;2024-03-07T12:08:10;16.30;46.80
48551;DHT22;34397;51.176;6.738;2024-03-07T12:10:43;16.80;45.40
48551;DHT22;34397;51.176;6.738;2024-03-07T12:13:16;17.30;44.40
48551;DHT22;34397;51.176;6.738;2024-03-07T12:15:50;17.70;43.90
48551;DHT22;34397;51.176;6.738;2024-03-07T12:18:22;18.10;43.30
48551;DHT22;34397;51.176;6.738;2024-03-07T12:20:54;18.40;42.20
48551;DHT22;34397;51.176;6.738;2024-03-07T12:23:30;18.70;42.20
48551;DHT22;34397;51.176;6.738;2024-03-07T12:26:04;18.80;41.10
48551;DHT22;34397;51.176;6.738;2024-03-07T12:28:36;18.80;40.80
48551;DHT22;34397;51.176;6.738;2024-03-07T12:31:08;18.70;40.20
48551;DHT22;34397;51.176;6.738;2024-03-07T12:33:47;18.50;39.90
48551;DHT22;34397;51.176;6.738;2024-03-07T12:36:21;18.30;40.10
48551;DHT22;34397;51.176;6.738;2024-03-07T12:39:04;17.90;40.20
48551;DHT22;34397;51.176;6.738;2024-03-07T12:41:56;17.50;40.60
48551;DHT22;34397;51.176;6.738;2024-03-07T12:44:28;17.10;41.00
48551;DHT22;34397;51.176;6.738;2024-03-07T12:46:59;16.80;41.80
48551;DHT22;34397;51.176;6.738;2024-03-07T12:49:31;16.40;42.30
48551;DHT22;34397;51.176;6.738;2024-03-07T12:52:04;16.10;42.70
48551;DHT22;34397;51.176;6.738;2024-03-07T12:54:39;15.90;43.00
48551;DHT22;34397;51.176;6.738;2024-03-07T12:57:12;15.70;43.40
48551;DHT22;34397;51.176;6.738;2024-03-07T12:59:44;15.50;44.10
48551;DHT22;34397;51.176;6.738;2024-03-07T13:02:16;15.40;44.90
48551;DHT22;34397;51.176;6.738;2024-03-07T13:04:48;15.10;44.80
48551;DHT22;34397;51.176;6.738;2024-03-07T13:07:21;14.80;45.30
48551;DHT22;34397;51.176;6.738;2024-03-07T13:09:55;14.50;46.10
48551;DHT22;34397;51.176;6.738;2024-03-07T13:12:26;14.30;45.70
48551;DHT22;34397;51.176;6.738;2024-03-07T13:15:00;14.10;46.00
48551;DHT22;34397;51.176;6.738;2024-03-07T13:17:33;14.00;45.90
48551;DHT22;34397;51.176;6.738;2024-03-07T13:20:08;13.90;46.10
48551;DHT22;34397;51.176;6.738;2024-03-07T13:22:43;13.80;46.40
48551;DHT22;34397;51.176;6.738;2024-03-07T13:25:22;13.70;46.50
48551;DHT22;34397;51.176;6.738;2024-03-07T13:27:59;13.50;46.70
48551;DHT22;34397;51.176;6.738;2024-03-07T13:30:33;13.40;47.00
48551;DHT22;34397;51.176;6.738;2024-03-07T13:33:06;13.30;46.80
48551;DHT22;34397;51.176;6.738;2024-03-07T13:35:41;13.20;46.90
48551;DHT22;34397;51.176;6.738;2024-03-07T13:38:13;13.10;47.50
48551;DHT22;34397;51.176;6.738;2024-03-07T13:40:47;13.10;47.50
48551;DHT22;34397;51.176;6.738;2024-03-07T13:43:20;12.90;47.40
48551;DHT22;34397;51.176;6.738;2024-03-07T13:45:52;12.90;48.10
48551;DHT22;34397;51.176;6.738;2024-03-07T13:48:23;12.80;48.40
48551;DHT22;34397;51.176;6.738;2024-03-07T13:50:55;12.70;48.60
48551;DHT22;34397;51.176;6.738;2024-03-07T13:53:28;12.60;48.50
48551;DHT22;34397;51.176;6.738;2024-03-07T13:56:32;12.60;48.90
48551;DHT22;34397;51.176;6.738;2024-03-07T14:03:22;12.50;48.90
48551;DHT22;34397;51.176;6.738;2024-03-07T14:06:06;12.40;49.40
48551;DHT22;34397;51.176;6.738;2024-03-07T14:09:14;12.40;49.50
48551;DHT22;34397;51.176;6.738;2024-03-07T14:12:27;12.40;49.50
48551;DHT22;34397;51.176;6.738;2024-03-07T14:15:48;12.40;49.40
48551;DHT22;34397;51.176;6.738;2024-03-07T14:19:11;12.40;49.80
48551;DHT22;34397;51.176;6.738;2024-03-07T14:22:24;12.30;49.60
48551;DHT22;34397;51.176;6.738;2024-03-07T14:28:26;12.30;50.10
48551;DHT22;34397;51.176;6.738;2024-03-07T14:31:13;12.20;49.50
48551;DHT22;34397;51.176;6.738;2024-03-07T14:34:02;12.20;50.10
48551;DHT22;34397;51.176;6.738;2024-03-07T14:36:40;12.10;50.30
48551;DHT22;34397;51.176;6.738;2024-03-07T14:39:18;12.10;50.30
48551;DHT22;34397;51.176;6.738;2024-03-07T14:41:57;12.00;50.30
48551;DHT22;34397;51.176;6.738;2024-03-07T14:44:32;12.00;50.30
48551;DHT22;34397;51.176;6.738;2024-03-07T14:47:06;11.90;50.40
48551;DHT22;34397;51.176;6.738;2024-03-07T14:49:41;11.90;50.40
48551;DHT22;34397;51.176;6.738;2024-03-07T14:52:13;11.90;50.20
48551;DHT22;34397;51.176;6.738;2024-03-07T14:54:45;11.90;50.30
48551;DHT22;34397;51.176;6.738;2024-03-07T14:57:18;11.90;50.40
48551;DHT22;34397;51.176;6.738;2024-03-07T14:59:51;11.90;50.50
48551;DHT22;34397;51.176;6.738;2024-03-07T15:02:23;11.90;50.50
48551;DHT22;34397;51.176;6.738;2024-03-07T15:04:56;11.90;50.40
48551;DHT22;34397;51.176;6.738;2024-03-07T15:07:28;12.00;50.00
48551;DHT22;34397;51.176;6.738;2024-03-07T15:10:01;12.10;50.60
48551;DHT22;34397;51.176;6.738;2024-03-07T15:12:36;12.10;50.00
48551;DHT22;34397;51.176;6.738;2024-03-07T15:15:10;12.20;49.90
48551;DHT22;34397;51.176;6.738;2024-03-07T15:17:44;12.20;49.60
48551;DHT22;34397;51.176;6.738;2024-03-07T15:20:16;12.20;49.60
48551;DHT22;34397;51.176;6.738;2024-03-07T15:22:55;12.20;49.70
48551;DHT22;34397;51.176;6.738;2024-03-07T15:25:27;12.10;49.50
48551;DHT22;34397;51.176;6.738;2024-03-07T15:28:00;12.10;49.70
48551;DHT22;34397;51.176;6.738;2024-03-07T15:30:33;12.10;48.80
48551;DHT22;34397;51.176;6.738;2024-03-07T15:33:06;12.10;49.10
48551;DHT22;34397;51.176;6.738;2024-03-07T15:35:38;12.00;49.10
48551;DHT22;34397;51.176;6.738;2024-03-07T15:38:10;12.00;49.50
48551;DHT22;34397;51.176;6.738;2024-03-07T15:40:44;12.00;49.80
48551;DHT22;34397;51.176;6.738;2024-03-07T15:43:16;12.00;49.50
48551;DHT22;34397;51.176;6.738;2024-03-07T15:45:50;11.90;49.40
48551;DHT22;34397;51.176;6.738;2024-03-07T15:48:23;12.00;49.10
48551;DHT22;34397;51.176;6.738;2024-03-07T15:50:55;11.90;48.60
48551;DHT22;34397;51.176;6.738;2024-03-07T15:53:32;11.90;49.50
48551;DHT22;34397;51.176;6.738;2024-03-07T15:56:04;12.00;50.50
48551;DHT22;34397;51.176;6.738;2024-03-07T15:58:37;11.80;49.80
48551;DHT22;34397;51.176;6.738;2024-03-07T16:01:11;11.80;49.20
48551;DHT22;34397;51.176;6.738;2024-03-07T16:03:44;11.70;48.80
48551;DHT22;34397;51.176;6.738;2024-03-07T16:06:17;11.60;49.10
48551;DHT22;34397;51.176;6.738;2024-03-07T16:08:49;11.60;49.10
48551;DHT22;34397;51.176;6.738;2024-03-07T16:11:21;11.50;49.10
48551;DHT22;34397;51.176;6.738;2024-03-07T16:13:54;11.60;49.50
48551;DHT22;34397;51.176;6.738;2024-03-07T16:16:28;11.60;49.60
48551;DHT22;34397;51.176;6.738;2024-03-07T16:18:59;11.60;48.80
48551;DHT22;34397;51.176;6.738;2024-03-07T16:21:35;11.60;48.90
48551;DHT22;34397;51.176;6.738;2024-03-07T16:24:08;11.50;49.20
48551;DHT22;34397;51.176;6.738;2024-03-07T16:26:41;11.40;48.60
48551;DHT22;34397;51.176;6.738;2024-03-07T16:29:14;11.40;48.80
48551;DHT22;34397;51.176;6.738;2024-03-07T16:31:47;11.40;49.10
48551;DHT22;34397;51.176;6.738;2024-03-07T16:34:19;11.30;49.10
48551;DHT22;34397;51.176;6.738;2024-03-07T16:36:51;11.30;49.20